Time;durP1;ratioP1;P1;durP2;ratioP2;P2;SDS_P1;SDS_P2;PMS_P1;PMS_P2;Temp;Humidity;BMP_temperature;BMP_pressure;BME280_temperature;BME280_humidity;BME280_pressure;Samples;Min_cycle;Max_cycle;Signal;HPM_P1;HPM_P2
2021/11/06 00:01:03;;;;;;;0.68;0.50;;;7.30;91.70;;;;;;6318453;22;20342;-79
2021/11/06 00:03:29;;;;;;;0.70;0.68;;;7.30;91.70;;;;;;6256921;22;20007;-79
2021/11/06 00:05:54;;;;;;;0.80;0.60;;;7.20;91.70;;;;;;6256311;22;20004;-79
2021/11/06 00:08:20;;;;;;;0.57;0.50;;;7.30;91.70;;;;;;6283560;22;20100;-79
2021/11/06 00:10:46;;;;;;;1.15;0.80;;;7.20;91.70;;;;;;6309077;22;20060;-79
2021/11/06 00:13:12;;;;;;;0.85;0.65;;;7.30;91.70;;;;;;6312880;22;20011;-79
2021/11/06 00:15:38;;;;;;;0.73;0.57;;;7.20;91.70;;;;;;6301326;22;20461;-79
2021/11/06 00:18:04;;;;;;;0.90;0.80;;;7.20;91.70;;;;;;6321153;22;20011;-78
2021/11/06 00:20:30;;;;;;;1.73;0.60;;;7.20;91.70;;;;;;6281005;22;20007;-79
2021/11/06 00:22:56;;;;;;;0.88;0.60;;;7.10;91.70;;;;;;6317904;22;20439;-79
2021/11/06 00:25:24;;;;;;;1.40;0.80;;;7.00;91.70;;;;;;6254025;22;20502;-79
2021/11/06 00:27:50;;;;;;;0.80;0.70;;;7.10;91.70;;;;;;6255242;22;20148;-80
2021/11/06 00:30:16;;;;;;;1.50;0.73;;;7.10;91.80;;;;;;6309540;22;20006;-79
2021/11/06 00:32:43;;;;;;;1.17;0.70;;;7.10;91.80;;;;;;6285450;22;20015;-80
2021/11/06 00:35:10;;;;;;;0.93;0.63;;;7.10;91.80;;;;;;6298168;22;20042;-80
2021/11/06 00:37:38;;;;;;;1.55;0.82;;;7.00;91.80;;;;;;6255195;22;20004;-77
2021/11/06 00:40:05;;;;;;;1.35;0.90;;;7.00;91.80;;;;;;6282440;22;20003;-80
2021/11/06 00:42:30;;;;;;;1.15;0.70;;;7.00;91.80;;;;;;6282670;22;20019;-77
2021/11/06 00:44:56;;;;;;;1.27;0.80;;;6.90;91.80;;;;;;6282687;22;20007;-79
2021/11/06 00:47:22;;;;;;;1.30;1.00;;;6.90;91.80;;;;;;6254008;22;20015;-79
2021/11/06 00:49:47;;;;;;;1.08;0.80;;;6.90;91.80;;;;;;6276968;22;20013;-79
2021/11/06 00:52:13;;;;;;;1.60;0.98;;;6.90;91.80;;;;;;6282993;22;20029;-80
2021/11/06 00:54:39;;;;;;;0.85;0.70;;;7.00;91.80;;;;;;6319733;22;20008;-79
2021/11/06 00:57:05;;;;;;;0.98;0.70;;;6.90;91.80;;;;;;6289552;22;20038;-79
2021/11/06 00:59:30;;;;;;;1.10;0.95;;;6.90;91.80;;;;;;6318375;22;20003;-79
2021/11/06 01:01:57;;;;;;;1.33;0.90;;;6.90;91.80;;;;;;6341480;22;20083;-79
2021/11/06 01:04:22;;;;;;;1.40;1.00;;;6.90;91.80;;;;;;6283873;22;20007;-79
2021/11/06 01:06:48;;;;;;;1.88;0.88;;;6.90;91.80;;;;;;6292575;22;20018;-80
2021/11/06 01:09:14;;;;;;;1.63;0.93;;;6.90;91.80;;;;;;6257622;22;20014;-79
2021/11/06 01:11:40;;;;;;;1.75;1.00;;;6.90;91.80;;;;;;6307539;22;20031;-80
2021/11/06 01:14:06;;;;;;;1.88;1.10;;;6.90;91.80;;;;;;6285612;22;20015;-79
2021/11/06 01:16:32;;;;;;;1.25;0.80;;;7.00;91.80;;;;;;6256884;22;20277;-79
2021/11/06 01:18:58;;;;;;;1.27;1.00;;;7.00;91.80;;;;;;6279071;22;20450;-79
2021/11/06 01:21:25;;;;;;;1.33;0.90;;;6.90;91.70;;;;;;6283095;22;20512;-79
2021/11/06 01:23:50;;;;;;;1.42;1.10;;;7.00;91.80;;;;;;6257842;22;20006;-79
2021/11/06 01:26:16;;;;;;;1.70;1.05;;;7.00;91.80;;;;;;6284133;22;20014;-79
2021/11/06 01:28:43;;;;;;;1.83;1.10;;;7.00;91.80;;;;;;6329179;22;20023;-79
2021/11/06 01:31:09;;;;;;;2.10;1.00;;;7.00;91.80;;;;;;6323049;22;20019;-78
2021/11/06 01:33:35;;;;;;;1.63;1.00;;;7.00;91.70;;;;;;6284552;22;20058;-79
2021/11/06 01:36:01;;;;;;;2.55;1.35;;;7.00;91.70;;;;;;6282221;22;20375;-78
2021/11/06 01:38:28;;;;;;;2.13;1.30;;;7.00;91.70;;;;;;6322831;22;20357;-79
2021/11/06 01:40:54;;;;;;;1.90;1.30;;;7.00;91.70;;;;;;6318379;22;20003;-79
2021/11/06 01:43:19;;;;;;;2.30;1.35;;;7.00;91.70;;;;;;6283432;22;20067;-78
2021/11/06 01:45:53;;;;;;;1.58;1.20;;;7.00;91.70;;;;;;6261498;22;20004;-79
2021/11/06 01:48:20;;;;;;;2.20;1.48;;;7.00;91.60;;;;;;6287853;22;20007;-79
2021/11/06 01:50:46;;;;;;;1.85;1.20;;;7.00;91.60;;;;;;6261332;22;20011;-79
2021/11/06 01:53:11;;;;;;;3.10;1.20;;;7.00;91.60;;;;;;6274817;22;20007;-79
2021/11/06 01:55:37;;;;;;;2.63;1.20;;;7.10;91.60;;;;;;6249308;22;20102;-79
2021/11/06 01:58:11;;;;;;;2.67;1.30;;;7.10;91.60;;;;;;6255983;22;20011;-79
2021/11/06 02:00:37;;;;;;;4.28;1.55;;;7.00;91.60;;;;;;6282779;22;20026;-78
2021/11/06 02:03:03;;;;;;;2.15;1.20;;;7.10;91.60;;;;;;6283484;22;20047;-79
2021/11/06 02:05:29;;;;;;;3.70;1.55;;;7.10;91.60;;;;;;6284146;22;20027;-78
2021/11/06 02:07:54;;;;;;;2.95;1.40;;;7.00;91.50;;;;;;6286313;22;20017;-79
2021/11/06 02:10:20;;;;;;;3.72;1.50;;;7.10;91.60;;;;;;6282284;22;20037;-78
2021/11/06 02:12:46;;;;;;;1.70;1.20;;;7.10;91.50;;;;;;6282388;22;20007;-78
2021/11/06 02:15:15;;;;;;;2.15;1.20;;;7.10;91.60;;;;;;6251866;22;20034;-79
2021/11/06 02:17:42;;;;;;;1.90;1.20;;;7.10;91.60;;;;;;6281789;22;20378;-79
2021/11/06 02:20:09;;;;;;;2.75;1.30;;;7.00;91.50;;;;;;6280699;22;20049;-79
2021/11/06 02:22:35;;;;;;;2.65;1.13;;;7.10;91.50;;;;;;6282426;22;20104;-79
2021/11/06 02:25:01;;;;;;;3.45;1.67;;;7.10;91.50;;;;;;6281781;22;20007;-79
2021/11/06 02:27:28;;;;;;;4.00;1.60;;;7.10;91.50;;;;;;6280919;22;20045;-80
2021/11/06 02:29:54;;;;;;;2.47;1.17;;;7.20;91.80;;;;;;6256380;22;20019;-80
2021/11/06 02:32:19;;;;;;;2.92;1.50;;;7.10;91.50;;;;;;6316316;22;20025;-79
2021/11/06 02:34:45;;;;;;;2.70;1.27;;;7.10;91.50;;;;;;6318577;22;20323;-79
2021/11/06 02:37:11;;;;;;;3.97;1.42;;;7.20;91.50;;;;;;6281982;22;20015;-79
2021/11/06 02:39:37;;;;;;;4.90;1.70;;;7.20;91.50;;;;;;6279849;22;20056;-80
2021/11/06 02:42:06;;;;;;;3.10;1.52;;;7.20;91.50;;;;;;6318032;22;20010;-78
2021/11/06 02:44:33;;;;;;;4.28;1.55;;;7.20;91.50;;;;;;6318405;22;20014;-79
2021/11/06 02:46:59;;;;;;;3.90;1.70;;;7.20;91.50;;;;;;6282436;22;20092;-79
2021/11/06 02:49:25;;;;;;;4.93;1.80;;;7.30;91.50;;;;;;6281205;22;20061;-79
2021/11/06 02:51:50;;;;;;;3.50;1.75;;;7.20;91.50;;;;;;6284662;22;20015;-80
2021/11/06 02:54:16;;;;;;;3.75;1.50;;;7.20;91.50;;;;;;6317857;22;20098;-79
2021/11/06 02:56:42;;;;;;;2.55;1.23;;;7.20;91.50;;;;;;6259149;22;20038;-79
2021/11/06 02:59:08;;;;;;;3.20;1.60;;;7.20;91.50;;;;;;6281999;22;20003;-78
2021/11/06 03:01:34;;;;;;;3.42;1.60;;;7.20;91.50;;;;;;6282277;22;20007;-79
2021/11/06 03:04:00;;;;;;;6.22;1.77;;;7.20;91.50;;;;;;6280527;22;20027;-79
2021/11/06 03:06:26;;;;;;;3.60;1.70;;;7.20;91.50;;;;;;6279870;22;20430;-79
2021/11/06 03:08:52;;;;;;;3.30;1.70;;;7.20;91.50;;;;;;6318851;22;20033;-79
2021/11/06 03:11:17;;;;;;;3.00;1.52;;;7.20;91.50;;;;;;6279838;22;20050;-80
2021/11/06 03:13:45;;;;;;;4.82;1.90;;;7.20;91.50;;;;;;6254471;22;20105;-79
2021/11/06 03:16:14;;;;;;;4.22;1.80;;;7.20;91.50;;;;;;6280919;22;20296;-79
2021/11/06 03:18:39;;;;;;;5.55;2.28;;;7.20;91.40;;;;;;6255105;22;20007;-78
2021/11/06 03:21:05;;;;;;;5.85;2.00;;;7.10;91.40;;;;;;6341171;22;20009;-78
2021/11/06 03:23:31;;;;;;;4.05;1.70;;;7.20;91.50;;;;;;6340952;22;20101;-78
2021/11/06 03:25:58;;;;;;;2.80;1.63;;;7.30;91.40;;;;;;6262319;22;20411;-78
2021/11/06 03:28:24;;;;;;;3.50;1.70;;;7.20;91.40;;;;;;6280238;22;20007;-78
2021/11/06 03:30:51;;;;;;;4.63;1.90;;;7.20;91.40;;;;;;6259496;22;20038;-78
2021/11/06 03:33:17;;;;;;;5.10;1.90;;;7.20;91.40;;;;;;6293572;22;20597;-77
2021/11/06 03:35:43;;;;;;;5.50;2.05;;;7.20;91.40;;;;;;6262037;22;20021;-77
2021/11/06 03:38:09;;;;;;;5.85;2.35;;;7.20;91.40;;;;;;6282537;22;20530;-77
2021/11/06 03:40:35;;;;;;;4.28;1.90;;;7.20;91.40;;;;;;6260664;22;20007;-78
2021/11/06 03:43:00;;;;;;;4.55;2.22;;;7.30;91.40;;;;;;6285626;22;20007;-77
2021/11/06 03:45:26;;;;;;;4.70;2.17;;;7.20;91.30;;;;;;6280412;22;20312;-77
2021/11/06 03:47:52;;;;;;;4.30;2.15;;;7.30;91.40;;;;;;6275647;22;20029;-78
2021/11/06 03:50:18;;;;;;;4.97;1.95;;;7.30;91.40;;;;;;6281591;22;20015;-77
2021/11/06 03:52:43;;;;;;;3.53;1.90;;;7.30;91.40;;;;;;6281425;22;20015;-77
2021/11/06 03:55:10;;;;;;;4.53;1.92;;;7.40;91.40;;;;;;6283189;22;20392;-77
2021/11/06 03:57:37;;;;;;;3.33;1.80;;;7.30;91.40;;;;;;6262890;22;20496;-78
2021/11/06 04:00:07;;;;;;;3.90;1.83;;;7.30;91.40;;;;;;6258221;22;20007;-78
2021/11/06 04:02:32;;;;;;;3.08;1.60;;;7.40;91.40;;;;;;6280683;22;20057;-78
2021/11/06 04:04:58;;;;;;;4.57;1.77;;;7.30;91.30;;;;;;6321192;22;20090;-78
2021/11/06 04:07:24;;;;;;;4.63;1.73;;;7.50;91.40;;;;;;6257793;22;20023;-78
2021/11/06 04:09:49;;;;;;;4.40;1.92;;;7.30;91.30;;;;;;6283139;22;20378;-78
2021/11/06 04:12:15;;;;;;;3.65;1.80;;;7.40;91.30;;;;;;6317783;22;20129;-80
2021/11/06 04:14:41;;;;;;;3.25;1.80;;;7.40;91.30;;;;;;6283270;22;20487;-78
2021/11/06 04:17:06;;;;;;;3.30;1.40;;;7.40;91.30;;;;;;6281610;22;20319;-78
2021/11/06 04:19:32;;;;;;;2.75;1.60;;;7.40;91.30;;;;;;6284275;22;20080;-77
2021/11/06 04:21:58;;;;;;;2.80;1.45;;;7.40;91.30;;;;;;6257127;22;20072;-78
2021/11/06 04:24:24;;;;;;;2.58;1.33;;;7.40;91.30;;;;;;6281815;22;20007;-78
2021/11/06 04:26:50;;;;;;;3.47;1.52;;;7.40;91.30;;;;;;6260269;22;20431;-78
2021/11/06 04:29:15;;;;;;;3.55;1.70;;;7.40;91.30;;;;;;6284101;22;20029;-76
2021/11/06 04:31:41;;;;;;;4.15;1.63;;;7.30;91.30;;;;;;6288477;22;20461;-77
2021/11/06 04:34:07;;;;;;;3.42;1.75;;;7.40;91.20;;;;;;6282272;22;20536;-77
2021/11/06 04:36:33;;;;;;;4.03;1.80;;;7.40;91.30;;;;;;6280010;22;20335;-78
2021/11/06 04:38:59;;;;;;;3.60;1.88;;;7.30;91.30;;;;;;6288409;22;20003;-77
2021/11/06 04:41:25;;;;;;;5.75;2.30;;;7.30;91.30;;;;;;6321714;22;19999;-78
2021/11/06 04:43:50;;;;;;;4.60;2.47;;;7.30;91.30;;;;;;6323119;22;19999;-77
2021/11/06 04:46:16;;;;;;;4.30;2.25;;;7.40;91.30;;;;;;6285321;22;20366;-78
2021/11/06 04:48:42;;;;;;;3.13;1.95;;;7.30;91.40;;;;;;6324881;22;20056;-78
2021/11/06 04:51:07;;;;;;;3.55;2.03;;;7.30;91.40;;;;;;6316025;22;20010;-79
2021/11/06 04:53:33;;;;;;;4.20;1.75;;;7.30;91.40;;;;;;6317895;22;20007;-79
2021/11/06 04:55:59;;;;;;;4.28;2.17;;;7.30;91.40;;;;;;6280427;22;20078;-77
2021/11/06 04:58:25;;;;;;;3.80;1.98;;;7.20;91.30;;;;;;6319012;22;20510;-78
2021/11/06 05:00:51;;;;;;;2.53;1.48;;;7.20;91.30;;;;;;6317794;22;20035;-78
2021/11/06 05:03:17;;;;;;;2.78;1.70;;;7.20;91.30;;;;;;6277996;22;20447;-77
2021/11/06 05:05:43;;;;;;;3.90;1.90;;;7.30;91.40;;;;;;6319759;22;20086;-78
2021/11/06 05:08:10;;;;;;;4.55;1.95;;;7.20;91.30;;;;;;6281909;22;20007;-78
2021/11/06 05:10:36;;;;;;;3.95;2.20;;;7.40;91.30;;;;;;6325061;22;20087;-77
2021/11/06 05:13:03;;;;;;;3.95;2.40;;;7.30;91.60;;;;;;6290489;22;20007;-78
2021/11/06 05:15:29;;;;;;;5.25;2.47;;;7.30;91.30;;;;;;6285385;22;20013;-77
2021/11/06 05:17:54;;;;;;;4.85;2.15;;;7.40;91.30;;;;;;6306922;22;20427;-78
2021/11/06 05:20:20;;;;;;;5.18;2.47;;;7.30;91.30;;;;;;6341018;22;20430;-79
2021/11/06 05:22:46;;;;;;;5.38;2.53;;;7.40;91.30;;;;;;6342267;22;20083;-78
2021/11/06 05:25:12;;;;;;;5.28;2.38;;;7.30;91.30;;;;;;6312433;22;20006;-78
2021/11/06 05:27:38;;;;;;;4.18;2.33;;;7.20;91.20;;;;;;6328201;22;20011;-78
2021/11/06 05:30:06;;;;;;;3.67;2.10;;;7.30;91.30;;;;;;6311585;22;20399;-78
2021/11/06 05:32:34;;;;;;;4.63;2.13;;;7.30;91.30;;;;;;6327017;22;20007;-78
2021/11/06 05:35:00;;;;;;;3.03;1.80;;;7.30;91.30;;;;;;6336966;22;20059;-78
2021/11/06 05:37:26;;;;;;;5.97;2.30;;;7.30;91.30;;;;;;6340939;22;20100;-78
2021/11/06 05:39:52;;;;;;;3.72;1.80;;;7.30;91.30;;;;;;6310972;22;20002;-79
2021/11/06 05:42:17;;;;;;;3.97;1.73;;;7.30;91.30;;;;;;6313978;22;20007;-78
2021/11/06 05:44:43;;;;;;;4.22;2.20;;;7.30;91.30;;;;;;6340965;22;20011;-77
2021/11/06 05:47:09;;;;;;;3.90;2.10;;;7.30;91.30;;;;;;6313462;22;20461;-79
2021/11/06 05:49:34;;;;;;;4.13;1.90;;;7.30;91.40;;;;;;6285752;22;20428;-78
2021/11/06 05:52:00;;;;;;;4.95;2.45;;;7.30;91.40;;;;;;6346043;22;20034;-79
2021/11/06 05:54:26;;;;;;;3.90;1.98;;;7.30;91.40;;;;;;6346947;22;20430;-79
2021/11/06 05:56:51;;;;;;;4.13;2.25;;;7.30;91.40;;;;;;6313795;22;20013;-78
2021/11/06 05:59:17;;;;;;;2.95;1.90;;;7.30;91.40;;;;;;6316935;22;20052;-79
2021/11/06 06:01:54;;;;;;;3.33;1.67;;;7.20;91.30;;;;;;6286951;22;20003;-78
2021/11/06 06:04:20;;;;;;;3.25;1.80;;;7.30;91.40;;;;;;6220229;23;20016;-79
2021/11/06 06:06:45;;;;;;;3.97;2.20;;;7.30;91.40;;;;;;6199548;23;20474;-78
2021/11/06 06:09:11;;;;;;;2.90;1.80;;;7.30;91.40;;;;;;6222848;23;20016;-79
2021/11/06 06:11:37;;;;;;;4.93;1.98;;;7.30;91.40;;;;;;6247023;23;20452;-78
2021/11/06 06:14:03;;;;;;;5.03;2.10;;;7.30;91.40;;;;;;6195517;23;20116;-78
2021/11/06 06:16:28;;;;;;;3.85;2.00;;;7.30;91.40;;;;;;6248306;22;20008;-79
2021/11/06 06:18:54;;;;;;;3.83;2.08;;;7.40;91.40;;;;;;6243508;22;20019;-80
2021/11/06 06:21:20;;;;;;;3.67;1.95;;;7.40;91.40;;;;;;6194403;23;20012;-79
2021/11/06 06:23:46;;;;;;;4.32;2.15;;;7.40;91.40;;;;;;6246930;22;20017;-78
2021/11/06 06:26:14;;;;;;;3.75;2.13;;;7.40;91.40;;;;;;6219627;23;20043;-79
2021/11/06 06:28:40;;;;;;;3.53;1.77;;;7.40;91.40;;;;;;6218300;23;20008;-79
2021/11/06 06:31:06;;;;;;;3.53;2.08;;;7.40;91.40;;;;;;6245158;23;20012;-78
2021/11/06 06:33:32;;;;;;;5.50;2.08;;;7.40;91.40;;;;;;6221429;23;20371;-79
2021/11/06 06:35:58;;;;;;;3.35;2.08;;;7.40;91.40;;;;;;6268143;22;20385;-79
2021/11/06 06:38:24;;;;;;;6.55;2.53;;;7.40;91.40;;;;;;6285072;22;20003;-77
2021/11/06 06:40:50;;;;;;;3.53;2.28;;;7.50;91.40;;;;;;6318634;22;20827;-78
2021/11/06 06:43:15;;;;;;;4.63;2.28;;;7.40;91.40;;;;;;6318853;22;20089;-78
2021/11/06 06:45:41;;;;;;;4.53;2.58;;;7.40;91.40;;;;;;6351814;22;20006;-78
2021/11/06 06:48:07;;;;;;;3.83;2.13;;;7.50;91.40;;;;;;6317029;22;20022;-77
2021/11/06 06:50:33;;;;;;;4.95;2.28;;;7.40;91.40;;;;;;6267304;22;19995;-77
2021/11/06 06:52:59;;;;;;;3.80;2.10;;;7.50;91.40;;;;;;6291757;22;20011;-78
2021/11/06 06:55:24;;;;;;;5.68;2.30;;;7.40;91.40;;;;;;6321942;22;20304;-78
2021/11/06 06:57:50;;;;;;;4.00;2.20;;;7.40;91.40;;;;;;6288209;22;20015;-78
2021/11/06 07:00:16;;;;;;;4.93;2.33;;;7.50;91.40;;;;;;6287326;22;20381;-78
2021/11/06 07:02:42;;;;;;;3.38;1.90;;;7.50;91.40;;;;;;6262196;22;20008;-78
2021/11/06 07:05:09;;;;;;;4.57;2.28;;;7.50;91.40;;;;;;6285926;22;20026;-78
2021/11/06 07:07:35;;;;;;;4.63;2.13;;;7.50;91.40;;;;;;6283861;22;20016;-78
2021/11/06 07:10:02;;;;;;;4.90;2.22;;;7.50;91.40;;;;;;6259947;22;20011;-78
2021/11/06 07:12:29;;;;;;;4.20;1.98;;;7.50;91.40;;;;;;6296246;22;20063;-77
2021/11/06 07:14:56;;;;;;;3.92;1.85;;;7.50;91.40;;;;;;6293040;22;20015;-78
2021/11/06 07:17:22;;;;;;;3.25;1.88;;;7.50;91.40;;;;;;6290430;22;20003;-78
2021/11/06 07:19:48;;;;;;;3.03;1.92;;;7.50;91.40;;;;;;6266229;22;20089;-78
2021/11/06 07:22:14;;;;;;;5.95;2.22;;;7.60;91.40;;;;;;6289055;22;20106;-79
2021/11/06 07:24:39;;;;;;;3.55;2.17;;;7.50;91.60;;;;;;6282428;22;20070;-78
2021/11/06 07:27:07;;;;;;;3.30;1.85;;;7.50;91.30;;;;;;6287597;22;20003;-79
2021/11/06 07:29:33;;;;;;;3.67;2.00;;;7.60;91.30;;;;;;6286028;22;20017;-79
2021/11/06 07:31:59;;;;;;;3.92;2.13;;;7.60;91.30;;;;;;6319515;22;20031;-79
2021/11/06 07:34:25;;;;;;;3.58;1.70;;;7.60;91.30;;;;;;6318931;22;20011;-78
2021/11/06 07:36:50;;;;;;;5.78;2.60;;;7.70;91.30;;;;;;6300491;22;20007;-78
2021/11/06 07:39:17;;;;;;;5.65;2.80;;;7.60;91.30;;;;;;6333199;22;20376;-78
2021/11/06 07:41:43;;;;;;;5.93;2.70;;;7.70;91.30;;;;;;6327042;22;20003;-78
2021/11/06 07:44:11;;;;;;;4.07;2.40;;;7.70;91.30;;;;;;6323176;22;20021;-79
2021/11/06 07:46:37;;;;;;;5.10;2.47;;;7.70;91.20;;;;;;6261460;22;20064;-79
2021/11/06 07:49:03;;;;;;;4.65;2.42;;;7.70;91.30;;;;;;6284976;22;20316;-78
2021/11/06 07:51:29;;;;;;;4.25;2.20;;;7.70;91.30;;;;;;6255342;22;20041;-79
2021/11/06 07:53:55;;;;;;;4.97;2.40;;;7.70;91.30;;;;;;6256150;22;20011;-79
2021/11/06 07:56:22;;;;;;;4.30;2.28;;;7.70;91.30;;;;;;6323048;22;20007;-79
2021/11/06 07:58:48;;;;;;;4.80;2.15;;;7.70;91.30;;;;;;6280919;22;20017;-82
2021/11/06 08:01:14;;;;;;;3.70;1.80;;;7.80;91.30;;;;;;6285105;22;20007;-80
2021/11/06 08:03:40;;;;;;;4.25;2.28;;;7.80;91.30;;;;;;6282877;22;20007;-81
2021/11/06 08:06:09;;;;;;;3.03;1.63;;;7.70;91.30;;;;;;6181356;23;20535;-78
2021/11/06 08:08:35;;;;;;;2.30;1.48;;;7.80;91.30;;;;;;6200444;23;20040;-78
2021/11/06 08:11:01;;;;;;;3.90;1.95;;;7.80;91.30;;;;;;6167391;23;20449;-79
2021/11/06 08:13:29;;;;;;;2.78;1.40;;;7.90;91.30;;;;;;6182937;23;20034;-79
2021/11/06 08:15:55;;;;;;;3.13;1.80;;;7.80;91.30;;;;;;6157984;23;20032;-78
2021/11/06 08:18:21;;;;;;;4.03;1.90;;;7.90;91.30;;;;;;6183156;23;20019;-78
2021/11/06 08:20:47;;;;;;;3.13;1.77;;;7.90;91.60;;;;;;6182392;23;20020;-78
2021/11/06 08:23:13;;;;;;;3.35;1.75;;;7.90;91.30;;;;;;6158899;23;20009;-82
2021/11/06 08:25:39;;;;;;;2.35;1.50;;;7.90;91.30;;;;;;6166179;23;20090;-80
2021/11/06 08:28:04;;;;;;;2.50;1.60;;;8.00;91.30;;;;;;6188821;23;20012;-79
2021/11/06 08:30:30;;;;;;;4.38;2.00;;;8.00;91.20;;;;;;6184770;23;20012;-80
2021/11/06 08:32:58;;;;;;;4.07;1.98;;;8.10;91.20;;;;;;6157901;23;20465;-81
2021/11/06 08:35:27;;;;;;;2.78;1.90;;;8.20;91.20;;;;;;6182349;23;20443;-81
2021/11/06 08:37:54;;;;;;;2.92;1.80;;;8.20;91.10;;;;;;6278896;22;20011;-81
2021/11/06 08:40:20;;;;;;;3.17;1.92;;;8.20;91.10;;;;;;6279898;22;20014;-81
2021/11/06 08:42:46;;;;;;;3.95;1.95;;;8.20;91.10;;;;;;6278484;22;20066;-81
2021/11/06 08:45:13;;;;;;;3.03;1.65;;;8.20;91.10;;;;;;6280142;22;20022;-81
2021/11/06 08:47:39;;;;;;;2.53;1.70;;;8.30;91.10;;;;;;6247650;22;20400;-81
2021/11/06 08:50:08;;;;;;;2.97;1.83;;;8.30;91.10;;;;;;6275518;22;20011;-81
2021/11/06 08:52:34;;;;;;;2.80;1.73;;;8.30;91.10;;;;;;6254579;22;20080;-80
2021/11/06 08:55:00;;;;;;;4.18;1.80;;;8.40;91.10;;;;;;6255633;22;20438;-81
2021/11/06 08:57:26;;;;;;;4.50;2.20;;;8.30;91.10;;;;;;6254119;22;20086;-81
2021/11/06 08:59:54;;;;;;;3.95;2.30;;;8.20;91.00;;;;;;6280996;22;20086;-81
2021/11/06 09:02:20;;;;;;;3.67;1.92;;;8.30;91.10;;;;;;6315800;22;20022;-80
2021/11/06 09:04:47;;;;;;;3.03;1.70;;;8.40;91.10;;;;;;6285437;22;20033;-81
2021/11/06 09:07:13;;;;;;;3.38;2.13;;;8.40;91.10;;;;;;6284889;22;20015;-81
2021/11/06 09:09:39;;;;;;;3.78;1.98;;;8.50;91.00;;;;;;6253076;22;20011;-81
2021/11/06 09:12:05;;;;;;;2.80;1.65;;;8.50;91.00;;;;;;6280687;22;20426;-81
2021/11/06 09:14:32;;;;;;;2.85;1.50;;;8.50;91.00;;;;;;6317418;22;20015;-82
2021/11/06 09:16:58;;;;;;;2.08;1.30;;;8.50;91.00;;;;;;6318561;22;20082;-82
2021/11/06 09:19:25;;;;;;;2.42;1.50;;;8.70;91.00;;;;;;6279534;22;20026;-82
2021/11/06 09:21:51;;;;;;;2.78;1.50;;;8.60;90.90;;;;;;6316883;22;20007;-82
2021/11/06 09:24:18;;;;;;;2.50;1.60;;;8.70;91.00;;;;;;6322128;22;20449;-81
2021/11/06 09:26:45;;;;;;;3.78;1.60;;;8.70;90.90;;;;;;6256896;22;20011;-82
2021/11/06 09:29:13;;;;;;;3.35;1.75;;;8.70;90.90;;;;;;6282028;22;20038;-81
2021/11/06 09:31:40;;;;;;;3.28;1.40;;;8.70;90.90;;;;;;6316815;22;20086;-81
2021/11/06 09:34:06;;;;;;;3.40;1.70;;;8.80;90.90;;;;;;6317024;22;20008;-82
2021/11/06 09:36:33;;;;;;;3.97;1.92;;;8.70;90.80;;;;;;6318425;22;19999;-81
2021/11/06 09:39:02;;;;;;;4.25;1.80;;;8.80;90.80;;;;;;6257048;22;20011;-82
2021/11/06 09:41:27;;;;;;;3.55;1.75;;;8.80;90.80;;;;;;6279608;22;20026;-81
2021/11/06 09:43:53;;;;;;;2.90;1.70;;;8.90;90.90;;;;;;6317139;22;20007;-81
2021/11/06 09:46:19;;;;;;;2.10;1.50;;;8.80;90.80;;;;;;6317440;22;20087;-81
2021/11/06 09:48:46;;;;;;;2.92;1.60;;;8.80;90.80;;;;;;6279073;22;20011;-82
2021/11/06 09:51:15;;;;;;;2.58;1.50;;;8.90;90.80;;;;;;6279219;22;20035;-81
2021/11/06 09:53:42;;;;;;;2.90;1.60;;;8.90;90.80;;;;;;6279982;22;20370;-81
2021/11/06 09:56:11;;;;;;;2.53;1.30;;;9.10;90.80;;;;;;6278870;22;20435;-82
2021/11/06 09:58:37;;;;;;;1.80;1.27;;;9.10;90.80;;;;;;6279038;22;20010;-81
2021/11/06 10:01:04;;;;;;;3.03;1.50;;;9.10;90.70;;;;;;6283268;22;20427;-80
2021/11/06 10:03:30;;;;;;;3.55;1.58;;;9.10;90.70;;;;;;6278532;22;20003;-80
2021/11/06 10:05:59;;;;;;;2.42;1.60;;;9.20;90.70;;;;;;6277665;22;20014;-81
2021/11/06 10:08:34;;;;;;;3.10;1.63;;;9.20;90.60;;;;;;6279060;22;20086;-81
2021/11/06 10:11:03;;;;;;;2.28;1.52;;;9.40;90.60;;;;;;6317160;22;20018;-81
2021/11/06 10:13:30;;;;;;;2.83;1.88;;;9.40;90.50;;;;;;6253525;22;20011;-81
2021/11/06 10:15:59;;;;;;;3.35;1.80;;;9.40;90.50;;;;;;6253735;22;20037;-81
2021/11/06 10:18:28;;;;;;;3.17;1.73;;;9.50;90.50;;;;;;6317605;22;20030;-81
2021/11/06 10:21:02;;;;;;;3.00;1.65;;;9.50;90.40;;;;;;6255535;22;20011;-80
2021/11/06 10:23:30;;;;;;;3.97;1.80;;;9.50;90.40;;;;;;6281736;22;20316;-81
2021/11/06 10:26:16;;;;;;;3.00;1.63;;;9.60;90.30;;;;;;6318152;22;20504;-81
2021/11/06 10:28:43;;;;;;;3.65;1.73;;;9.60;90.30;;;;;;6318965;22;20012;-82
2021/11/06 10:31:09;;;;;;;2.40;1.60;;;9.60;90.30;;;;;;6249652;22;20007;-81
2021/11/06 10:33:50;;;;;;;3.28;1.90;;;9.60;90.30;;;;;;6274640;22;20086;-80
2021/11/06 10:36:20;;;;;;;2.83;1.38;;;9.60;90.30;;;;;;6281855;22;20034;-81
2021/11/06 10:38:59;;;;;;;2.53;1.63;;;9.70;90.30;;;;;;6285486;22;20086;-81
2021/11/06 10:41:28;;;;;;;2.80;1.55;;;9.70;90.30;;;;;;6282096;22;20003;-82
2021/11/06 10:43:54;;;;;;;4.00;1.60;;;9.70;90.30;;;;;;6248962;22;20110;-81
2021/11/06 10:46:28;;;;;;;2.63;1.30;;;9.70;90.30;;;;;;6255096;22;20373;-81
2021/11/06 10:48:55;;;;;;;2.30;1.23;;;9.80;90.30;;;;;;6290475;22;20007;-82
2021/11/06 10:51:21;;;;;;;3.42;1.58;;;9.80;90.20;;;;;;6311171;22;20007;-81
2021/11/06 10:53:58;;;;;;;3.67;1.55;;;9.80;90.20;;;;;;6284581;22;20034;-81
2021/11/06 10:56:34;;;;;;;4.35;1.80;;;9.90;90.20;;;;;;6308891;22;20077;-82
2021/11/06 10:59:07;;;;;;;2.20;1.50;;;9.90;90.10;;;;;;6307721;22;20030;-82
2021/11/06 11:01:36;;;;;;;2.78;1.60;;;10.00;90.10;;;;;;6307804;22;20015;-82
2021/11/06 11:04:05;;;;;;;1.67;1.30;;;10.10;90.10;;;;;;6267029;22;20062;-81
2021/11/06 11:06:42;;;;;;;1.52;1.27;;;10.20;90.00;;;;;;6255207;22;20011;-81
2021/11/06 11:09:11;;;;;;;1.55;1.13;;;10.20;90.00;;;;;;6318871;22;20007;-81
2021/11/06 11:11:38;;;;;;;2.25;1.27;;;10.30;90.00;;;;;;6280453;22;20369;-80
2021/11/06 11:14:07;;;;;;;2.28;1.30;;;10.30;89.90;;;;;;6318214;22;20018;-81
2021/11/06 11:16:35;;;;;;;2.17;1.40;;;10.40;89.90;;;;;;6255504;22;20003;-81
2021/11/06 11:19:04;;;;;;;4.60;1.50;;;10.40;89.80;;;;;;6280653;22;20373;-81
2021/11/06 11:21:37;;;;;;;2.00;1.40;;;10.40;89.70;;;;;;6280367;22;20000;-82
2021/11/06 11:24:08;;;;;;;2.63;1.42;;;10.50;89.70;;;;;;6317931;22;20017;-81
2021/11/06 11:26:41;;;;;;;2.17;1.30;;;10.50;89.70;;;;;;6281186;22;20003;-81
2021/11/06 11:29:08;;;;;;;1.60;1.15;;;10.50;89.70;;;;;;6318085;22;20003;-81
2021/11/06 11:31:35;;;;;;;1.90;1.23;;;10.50;89.60;;;;;;6280849;22;20096;-81
2021/11/06 11:34:02;;;;;;;2.45;1.50;;;10.60;89.60;;;;;;6256264;22;20012;-80
2021/11/06 11:36:32;;;;;;;1.52;1.23;;;10.60;89.50;;;;;;6319454;22;20017;-82
2021/11/06 11:39:00;;;;;;;1.80;1.25;;;10.60;89.30;;;;;;6283417;22;20435;-81
2021/11/06 11:42:04;;;;;;;1.48;1.15;;;10.60;89.30;;;;;;6279902;22;20011;-81
2021/11/06 11:45:04;;;;;;;2.40;1.50;;;10.80;89.40;;;;;;6288732;22;20439;-81
2021/11/06 11:47:43;;;;;;;2.20;1.33;;;10.70;89.20;;;;;;6307378;22;20068;-82
2021/11/06 11:50:17;;;;;;;1.85;1.40;;;10.70;89.10;;;;;;6293572;22;20014;-81
2021/11/06 11:52:50;;;;;;;2.05;1.30;;;10.80;89.20;;;;;;6316346;22;20017;-82
2021/11/06 11:55:19;;;;;;;1.50;1.10;;;10.80;89.10;;;;;;6316272;22;20011;-81
2021/11/06 11:58:04;;;;;;;2.15;1.30;;;10.80;89.10;;;;;;6273761;22;20000;-82
2021/11/06 12:00:37;;;;;;;2.03;1.30;;;10.90;89.10;;;;;;6317593;22;20002;-81
2021/11/06 12:03:05;;;;;;;1.60;1.20;;;10.80;88.90;;;;;;6275277;22;20026;-81
2021/11/06 12:05:37;;;;;;;1.83;1.35;;;10.90;89.00;;;;;;6279845;22;20038;-81
2021/11/06 12:08:27;;;;;;;2.67;1.42;;;10.90;88.90;;;;;;6258395;22;20038;-82
2021/11/06 12:10:56;;;;;;;4.00;1.63;;;10.90;88.90;;;;;;6282796;22;20030;-80
2021/11/06 12:13:36;;;;;;;3.50;1.52;;;10.80;88.90;;;;;;6269109;22;20015;-80
2021/11/06 12:16:06;;;;;;;2.60;1.63;;;10.80;88.80;;;;;;6307995;22;20082;-81
2021/11/06 12:18:55;;;;;;;2.63;1.70;;;10.90;88.70;;;;;;6260659;22;20007;-80
2021/11/06 12:21:26;;;;;;;2.45;1.55;;;11.00;88.60;;;;;;6262865;22;20007;-80
2021/11/06 12:23:58;;;;;;;2.72;1.70;;;11.10;88.50;;;;;;6285104;22;20003;-80
2021/11/06 12:26:28;;;;;;;3.08;1.80;;;11.30;88.40;;;;;;6312287;22;20323;-80
2021/11/06 12:29:34;;;;;;;2.53;1.70;;;11.30;88.10;;;;;;6286138;22;20141;-81
2021/11/06 12:32:22;;;;;;;2.83;1.80;;;11.30;87.90;;;;;;6313718;22;20007;-81
2021/11/06 12:34:55;;;;;;;2.78;1.80;;;11.40;87.80;;;;;;6274624;22;20010;-82
2021/11/06 12:37:44;;;;;;;2.67;1.40;;;11.40;87.80;;;;;;6310992;22;20046;-81
2021/11/06 12:40:31;;;;;;;3.20;1.67;;;11.30;87.80;;;;;;6262932;22;20033;-81
2021/11/06 12:43:12;;;;;;;2.22;1.30;;;11.30;87.80;;;;;;6280144;22;20003;-81
2021/11/06 12:45:41;;;;;;;1.90;1.40;;;11.30;88.00;;;;;;6310315;22;20011;-80
2021/11/06 12:48:14;;;;;;;2.90;1.75;;;11.20;87.90;;;;;;6286743;22;20015;-80
2021/11/06 12:50:46;;;;;;;3.03;1.73;;;11.20;88.00;;;;;;6281909;22;20064;-81
2021/11/06 12:53:24;;;;;;;2.60;1.55;;;11.20;88.10;;;;;;6280898;22;20066;-81
2021/11/06 12:56:01;;;;;;;2.22;1.33;;;11.10;88.30;;;;;;6314341;22;20478;-80
2021/11/06 12:58:27;;;;;;;2.45;1.60;;;11.20;88.40;;;;;;6314422;22;20030;-80